createdAt,value
2023-02-06T00:02:11.861Z,7.00
2023-02-06T00:04:42.547Z,7.00
2023-02-06T00:07:13.018Z,6.90
2023-02-06T00:09:43.532Z,6.90
2023-02-06T00:12:14.461Z,6.80
2023-02-06T00:14:45.210Z,6.90
2023-02-06T00:17:20.959Z,6.90
2023-02-06T00:19:51.318Z,6.90
2023-02-06T00:22:21.886Z,6.80
2023-02-06T00:24:52.948Z,6.80
2023-02-06T00:27:23.494Z,6.80
2023-02-06T00:29:55.781Z,6.80
2023-02-06T00:32:29.053Z,6.70
2023-02-06T00:34:59.707Z,6.60
2023-02-06T00:37:30.854Z,6.60
2023-02-06T00:40:01.898Z,6.60
2023-02-06T00:42:32.721Z,6.50
2023-02-06T00:45:06.840Z,6.40
2023-02-06T00:47:44.838Z,6.50
2023-02-06T00:50:16.193Z,6.40
2023-02-06T00:52:49.142Z,6.40
2023-02-06T00:55:21.676Z,6.40
2023-02-06T00:57:52.585Z,6.40
2023-02-06T01:00:23.789Z,6.30
2023-02-06T01:02:58.465Z,6.30
2023-02-06T01:05:28.996Z,6.20
2023-02-06T01:07:59.561Z,6.20
2023-02-06T01:10:30.647Z,6.30
2023-02-06T01:13:01.910Z,6.30
2023-02-06T01:15:32.575Z,6.20
2023-02-06T01:18:06.021Z,6.30
2023-02-06T01:20:39.509Z,6.30
2023-02-06T01:23:10.888Z,6.30
2023-02-06T01:25:46.104Z,6.20
2023-02-06T01:28:17.299Z,6.20
2023-02-06T01:30:49.087Z,6.30
2023-02-06T01:33:22.767Z,6.30
2023-02-06T01:35:59.477Z,6.30
2023-02-06T01:38:30.116Z,6.30
2023-02-06T01:41:02.074Z,6.30
2023-02-06T01:43:36.271Z,6.30
2023-02-06T01:46:07.606Z,6.30
2023-02-06T01:48:45.150Z,6.30
2023-02-06T01:51:21.693Z,6.20
2023-02-06T01:54:02.559Z,6.20
2023-02-06T01:56:37.970Z,6.30
2023-02-06T01:59:08.530Z,6.20
2023-02-06T02:01:43.205Z,6.20
2023-02-06T02:04:21.916Z,6.20
2023-02-06T02:07:05.839Z,6.20
2023-02-06T02:09:37.284Z,6.20
2023-02-06T02:12:08.005Z,6.10
2023-02-06T02:14:38.961Z,6.10
2023-02-06T02:17:23.609Z,6.10
2023-02-06T02:20:32.256Z,6.20
2023-02-06T02:23:11.374Z,6.20
2023-02-06T02:26:24.709Z,6.20
2023-02-06T02:29:26.186Z,6.20
2023-02-06T02:32:26.036Z,6.20
2023-02-06T02:35:23.844Z,6.20
2023-02-06T02:38:13.174Z,6.20
2023-02-06T02:40:50.496Z,6.20
2023-02-06T02:43:32.706Z,6.20
2023-02-06T02:46:07.474Z,6.20
2023-02-06T02:48:42.451Z,6.10
2023-02-06T02:51:16.171Z,6.10
2023-02-06T02:53:46.445Z,6.10
2023-02-06T02:56:20.106Z,6.10
2023-02-06T02:58:55.568Z,6.20
2023-02-06T03:01:32.202Z,6.10
2023-02-06T03:04:11.230Z,6.10
2023-02-06T03:07:01.801Z,6.00
2023-02-06T03:09:46.763Z,6.10
2023-02-06T03:12:24.833Z,6.00
2023-02-06T03:15:01.099Z,6.00
2023-02-06T03:17:37.859Z,6.00
2023-02-06T03:20:11.763Z,6.00
2023-02-06T03:22:47.286Z,6.00
2023-02-06T03:25:23.172Z,6.20
2023-02-06T03:27:55.631Z,6.10
2023-02-06T03:30:28.998Z,6.00
2023-02-06T03:33:04.473Z,6.10
2023-02-06T03:35:37.990Z,6.10
2023-02-06T03:38:12.355Z,6.00
2023-02-06T03:40:43.916Z,6.00
2023-02-06T03:43:18.940Z,6.00
2023-02-06T03:45:51.641Z,6.10
2023-02-06T03:48:27.208Z,6.00
2023-02-06T03:50:59.898Z,5.90
2023-02-06T03:53:34.186Z,5.90
2023-02-06T03:56:13.468Z,5.90
2023-02-06T03:58:43.874Z,5.90
2023-02-06T04:01:15.559Z,5.90
2023-02-06T04:03:45.925Z,5.90
2023-02-06T04:06:16.260Z,5.80
2023-02-06T04:08:49.287Z,5.80
2023-02-06T04:11:19.598Z,5.80
2023-02-06T04:13:49.863Z,5.70
2023-02-06T04:16:20.182Z,5.80
2023-02-06T04:18:51.295Z,5.70
2023-02-06T04:21:21.518Z,5.80
2023-02-06T04:23:54.460Z,5.70
2023-02-06T04:26:24.738Z,5.80
2023-02-06T04:28:55.256Z,5.70
2023-02-06T04:31:25.587Z,5.70
2023-02-06T04:33:56.062Z,5.70
2023-02-06T04:36:26.324Z,5.70
2023-02-06T04:38:59.406Z,5.70
2023-02-06T04:41:29.799Z,5.70
2023-02-06T04:44:00.564Z,5.70
2023-02-06T04:46:30.818Z,5.60
2023-02-06T04:49:01.152Z,5.70
2023-02-06T04:51:31.419Z,5.70
2023-02-06T04:54:04.611Z,5.70
2023-02-06T04:56:35.308Z,5.70
2023-02-06T04:59:05.578Z,5.80
2023-02-06T05:01:35.920Z,5.70
2023-02-06T05:04:06.369Z,5.80
2023-02-06T05:06:36.692Z,5.80
2023-02-06T05:09:10.160Z,5.80
2023-02-06T05:11:40.462Z,5.70
2023-02-06T05:14:10.795Z,5.70
2023-02-06T05:16:41.375Z,5.80
2023-02-06T05:19:11.773Z,5.80
2023-02-06T05:21:42.005Z,5.80
2023-02-06T05:24:15.109Z,5.80
2023-02-06T05:26:46.681Z,5.80
2023-02-06T05:29:17.136Z,5.70
2023-02-06T05:31:47.442Z,5.70
2023-02-06T05:34:17.769Z,5.70
2023-02-06T05:36:48.098Z,5.70
2023-02-06T05:39:21.202Z,5.70
2023-02-06T05:41:51.448Z,5.70
2023-02-06T05:44:22.035Z,5.70
2023-02-06T05:46:52.256Z,5.70
2023-02-06T05:49:22.864Z,5.70
2023-02-06T05:51:53.129Z,5.80
2023-02-06T05:54:26.236Z,5.70
2023-02-06T05:56:57.320Z,5.70
2023-02-06T05:59:27.754Z,5.70
2023-02-06T06:01:58.112Z,5.70
2023-02-06T06:04:29.193Z,5.70
2023-02-06T06:06:59.482Z,5.70
2023-02-06T06:09:32.521Z,5.70
2023-02-06T06:12:02.737Z,5.70
2023-02-06T06:14:33.033Z,5.80
2023-02-06T06:17:03.384Z,5.70
2023-02-06T06:19:34.126Z,5.70
2023-02-06T06:22:04.382Z,5.80
2023-02-06T06:24:37.348Z,5.80
2023-02-06T06:27:10.719Z,5.80
2023-02-06T06:29:41.138Z,5.80
2023-02-06T06:32:11.459Z,5.70
2023-02-06T06:34:42.065Z,5.70
2023-02-06T06:37:12.310Z,5.80
2023-02-06T06:39:45.737Z,5.80
2023-02-06T06:42:16.027Z,5.70
2023-02-06T06:44:46.505Z,5.80
2023-02-06T06:47:16.805Z,5.80
2023-02-06T06:49:47.311Z,5.80
2023-02-06T06:52:25.030Z,5.80
2023-02-06T06:54:58.654Z,5.80
2023-02-06T06:57:28.938Z,5.80
2023-02-06T06:59:59.382Z,5.80
2023-02-06T07:02:29.702Z,5.80
2023-02-06T07:05:00.635Z,5.80
2023-02-06T07:07:30.959Z,5.80
2023-02-06T07:10:04.102Z,5.80
2023-02-06T07:12:34.443Z,5.80
2023-02-06T07:15:04.941Z,5.70
2023-02-06T07:17:35.255Z,5.70
2023-02-06T07:20:06.038Z,5.70
2023-02-06T07:22:36.333Z,5.70
2023-02-06T07:25:10.437Z,5.80
2023-02-06T07:27:40.698Z,5.80
2023-02-06T07:30:12.824Z,5.70
2023-02-06T07:32:43.516Z,5.80
2023-02-06T07:35:15.406Z,5.80
2023-02-06T07:37:45.656Z,5.80
2023-02-06T07:40:19.100Z,5.80
2023-02-06T07:42:49.328Z,5.80
2023-02-06T07:45:27.118Z,5.80
2023-02-06T07:47:57.376Z,5.80
2023-02-06T07:50:27.774Z,5.80
2023-02-06T07:52:58.072Z,5.90
2023-02-06T07:55:31.503Z,5.80
2023-02-06T07:58:01.737Z,5.80
2023-02-06T08:00:32.125Z,5.70
2023-02-06T08:03:02.435Z,5.70
2023-02-06T08:05:32.751Z,5.70
2023-02-06T08:08:03.259Z,5.60
2023-02-06T08:10:36.245Z,5.80
2023-02-06T08:13:06.523Z,5.80
2023-02-06T08:15:37.215Z,5.80
2023-02-06T08:18:09.235Z,5.70
2023-02-06T08:20:39.610Z,5.70
2023-02-06T08:23:10.488Z,5.70
2023-02-06T08:25:43.439Z,5.70
2023-02-06T08:28:15.115Z,5.70
2023-02-06T08:30:45.804Z,5.70
2023-02-06T08:33:16.189Z,5.80
2023-02-06T08:35:46.535Z,5.80
2023-02-06T08:38:16.820Z,5.80
2023-02-06T08:40:49.828Z,5.80
2023-02-06T08:43:20.143Z,5.80
2023-02-06T08:45:52.018Z,5.80
2023-02-06T08:48:22.761Z,5.90
2023-02-06T08:50:53.258Z,5.90
2023-02-06T08:53:23.600Z,5.90
2023-02-06T08:56:01.548Z,5.90
2023-02-06T08:58:31.899Z,6.00
2023-02-06T09:01:07.932Z,5.90
2023-02-06T09:03:39.005Z,5.90
2023-02-06T09:06:10.647Z,5.90
2023-02-06T09:08:41.837Z,5.90
2023-02-06T09:11:16.736Z,5.90
2023-02-06T09:13:49.750Z,5.90
2023-02-06T09:16:22.274Z,5.90
2023-02-06T09:18:54.344Z,5.80
2023-02-06T09:21:27.238Z,5.90
2023-02-06T09:24:00.392Z,5.90
2023-02-06T09:26:38.921Z,5.90
2023-02-06T09:29:13.436Z,5.90
2023-02-06T09:31:45.481Z,5.90
2023-02-06T09:34:16.330Z,5.90
2023-02-06T09:36:46.726Z,6.00
2023-02-06T09:39:17.228Z,5.90
2023-02-06T09:41:53.406Z,6.00
2023-02-06T09:44:28.752Z,5.90
2023-02-06T09:47:17.343Z,6.00
2023-02-06T09:49:54.323Z,6.00
2023-02-06T09:52:42.496Z,6.00
2023-02-06T09:55:23.455Z,6.10
2023-02-06T09:58:01.627Z,6.00
2023-02-06T10:00:42.266Z,6.00
2023-02-06T10:03:48.396Z,6.10
2023-02-06T10:06:23.556Z,6.00
2023-02-06T10:09:00.804Z,6.10
2023-02-06T10:11:45.208Z,6.20
2023-02-06T10:14:24.568Z,6.20
2023-02-06T10:16:59.252Z,6.20
2023-02-06T10:19:40.888Z,6.20
2023-02-06T10:22:17.132Z,6.30
2023-02-06T10:24:55.531Z,6.30
2023-02-06T10:27:25.826Z,6.30
2023-02-06T10:29:58.966Z,6.30
2023-02-06T10:32:40.471Z,6.30
2023-02-06T10:35:25.924Z,6.40
2023-02-06T10:38:21.958Z,6.40
2023-02-06T10:40:56.260Z,6.50
2023-02-06T10:43:40.638Z,6.70
2023-02-06T10:46:41.090Z,6.70
2023-02-06T10:49:19.790Z,6.60
2023-02-06T10:51:54.126Z,6.50
2023-02-06T10:54:30.506Z,6.60
2023-02-06T10:57:02.705Z,6.60
2023-02-06T10:59:36.608Z,6.70
2023-02-06T11:02:24.732Z,6.70
2023-02-06T11:04:58.470Z,6.70
2023-02-06T11:07:32.699Z,6.70
2023-02-06T11:10:03.506Z,6.70
2023-02-06T11:12:37.229Z,6.70
2023-02-06T11:15:12.102Z,6.80
2023-02-06T11:17:47.827Z,6.80
2023-02-06T11:20:24.490Z,6.90
2023-02-06T11:22:55.516Z,6.90
2023-02-06T11:25:31.347Z,7.00
2023-02-06T11:28:03.486Z,7.00
2023-02-06T11:30:36.838Z,7.10
2023-02-06T11:33:20.717Z,7.10
2023-02-06T11:35:54.175Z,7.20
2023-02-06T11:38:27.976Z,7.20
2023-02-06T11:41:02.455Z,7.20
2023-02-06T11:43:35.392Z,7.20
2023-02-06T11:46:15.477Z,7.30
2023-02-06T11:48:50.372Z,7.30
2023-02-06T11:51:20.624Z,7.40
2023-02-06T11:54:02.499Z,7.50
2023-02-06T11:56:34.517Z,7.30
2023-02-06T11:59:07.423Z,7.30
2023-02-06T12:01:45.264Z,7.30
2023-02-06T12:04:26.474Z,7.40
2023-02-06T12:07:01.475Z,7.60
2023-02-06T12:09:31.956Z,7.70
2023-02-06T12:12:06.577Z,7.60
2023-02-06T12:14:42.169Z,7.50
2023-02-06T12:17:24.261Z,7.50
2023-02-06T12:20:03.597Z,7.60
2023-02-06T12:22:39.254Z,7.70
2023-02-06T12:25:28.961Z,7.70
2023-02-06T12:28:06.678Z,7.70
2023-02-06T12:30:42.160Z,7.70
2023-02-06T12:33:17.689Z,7.80
2023-02-06T12:35:56.451Z,7.70
2023-02-06T12:38:40.465Z,7.60
2023-02-06T12:41:24.974Z,7.90
2023-02-06T12:43:59.367Z,7.80
2023-02-06T12:46:31.497Z,7.80
2023-02-06T12:49:08.589Z,7.70
2023-02-06T12:51:48.433Z,7.80
2023-02-06T12:54:22.515Z,7.90
2023-02-06T12:56:57.389Z,8.00
2023-02-06T12:59:57.500Z,8.10
2023-02-06T13:02:50.670Z,8.10
2023-02-06T13:05:25.718Z,8.30
2023-02-06T13:08:05.586Z,8.40
2023-02-06T13:10:36.174Z,8.20
2023-02-06T13:13:07.534Z,8.10
2023-02-06T13:15:41.363Z,7.90
2023-02-06T13:18:41.635Z,7.90
2023-02-06T13:21:19.852Z,8.00
2023-02-06T13:24:16.274Z,8.00
2023-02-06T13:27:07.060Z,8.20
2023-02-06T13:29:38.769Z,8.30
2023-02-06T13:32:40.769Z,8.30
2023-02-06T13:35:29.941Z,8.40
2023-02-06T13:38:38.413Z,8.30
2023-02-06T13:41:34.243Z,8.40
2023-02-06T13:44:08.153Z,8.40
2023-02-06T13:47:10.777Z,8.40
2023-02-06T13:50:16.805Z,8.40
2023-02-06T13:52:55.538Z,8.50
2023-02-06T13:55:32.767Z,8.50
2023-02-06T13:58:39.304Z,8.50
2023-02-06T14:01:17.448Z,8.50
2023-02-06T14:03:50.106Z,8.50
2023-02-06T14:06:40.010Z,8.60
2023-02-06T14:09:39.056Z,8.70
2023-02-06T14:12:30.711Z,8.70
2023-02-06T14:15:17.073Z,8.60
2023-02-06T14:18:13.562Z,8.60
2023-02-06T14:20:52.805Z,8.50
2023-02-06T14:23:35.546Z,8.50
2023-02-06T14:26:18.126Z,8.50
2023-02-06T14:28:58.634Z,8.50
2023-02-06T14:31:54.968Z,8.50
2023-02-06T14:34:36.249Z,8.50
2023-02-06T14:37:23.351Z,8.50
2023-02-06T14:39:55.476Z,8.50
2023-02-06T14:42:28.862Z,8.60
2023-02-06T14:45:03.334Z,8.60
2023-02-06T14:47:42.473Z,8.60
2023-02-06T14:50:23.454Z,8.70
2023-02-06T14:52:56.574Z,8.60
2023-02-06T14:55:35.905Z,8.60
2023-02-06T14:58:07.739Z,8.70
2023-02-06T15:00:38.204Z,8.70
2023-02-06T15:03:18.322Z,8.70
2023-02-06T15:05:49.225Z,8.70
2023-02-06T15:08:21.400Z,8.70
2023-02-06T15:11:00.621Z,8.80
2023-02-06T15:13:35.078Z,8.70
2023-02-06T15:16:08.035Z,8.60
2023-02-06T15:18:41.220Z,8.60
2023-02-06T15:21:15.602Z,8.40
2023-02-06T15:23:58.860Z,8.50
2023-02-06T15:26:35.761Z,8.50
2023-02-06T15:29:19.849Z,8.50
2023-02-06T15:31:51.688Z,8.60
2023-02-06T15:34:27.286Z,8.60
2023-02-06T15:36:57.789Z,8.50
2023-02-06T15:39:28.616Z,8.50
2023-02-06T15:41:59.040Z,8.50
2023-02-06T15:44:34.306Z,8.50
2023-02-06T15:47:07.731Z,8.50
2023-02-06T15:49:43.430Z,8.50
2023-02-06T15:52:15.266Z,8.50
2023-02-06T15:54:45.835Z,8.40
2023-02-06T15:57:30.562Z,8.30
2023-02-06T16:00:01.201Z,8.30
2023-02-06T16:02:36.080Z,8.30
2023-02-06T16:05:11.272Z,8.30
2023-02-06T16:07:41.571Z,8.30
2023-02-06T16:10:23.719Z,8.20
2023-02-06T16:12:55.291Z,8.20
2023-02-06T16:15:33.171Z,8.20
2023-02-06T16:18:06.338Z,8.10
2023-02-06T16:20:42.997Z,8.10
2023-02-06T16:23:28.213Z,8.10
2023-02-06T16:26:07.728Z,8.10
2023-02-06T16:28:44.957Z,8.10
2023-02-06T16:31:17.423Z,8.10
2023-02-06T16:33:50.470Z,8.00
2023-02-06T16:36:25.329Z,8.00
2023-02-06T16:39:03.725Z,8.00
2023-02-06T16:41:37.731Z,7.90
2023-02-06T16:44:14.231Z,7.90
2023-02-06T16:46:46.586Z,7.90
2023-02-06T16:49:18.653Z,7.80
2023-02-06T16:51:55.105Z,7.80
2023-02-06T16:54:28.433Z,7.70
2023-02-06T16:57:01.455Z,7.70
2023-02-06T16:59:31.789Z,7.60
2023-02-06T17:02:02.152Z,7.60
2023-02-06T17:04:32.518Z,7.60
2023-02-06T17:07:05.541Z,7.50
2023-02-06T17:09:35.895Z,7.50
2023-02-06T17:12:06.387Z,7.40
2023-02-06T17:14:37.483Z,7.40
2023-02-06T17:17:08.929Z,7.50
2023-02-06T17:19:40.227Z,7.50
2023-02-06T17:22:14.679Z,7.50
2023-02-06T17:24:45.870Z,7.60
2023-02-06T17:27:19.353Z,7.50
2023-02-06T17:29:50.844Z,7.50
2023-02-06T17:32:23.098Z,7.50
2023-02-06T17:34:54.691Z,7.50
2023-02-06T17:37:27.621Z,7.50
2023-02-06T17:39:57.956Z,7.50
2023-02-06T17:42:28.591Z,7.50
2023-02-06T17:44:59.238Z,7.50
2023-02-06T17:47:29.895Z,7.50
2023-02-06T17:50:00.510Z,7.50
2023-02-06T17:52:33.526Z,7.50
2023-02-06T17:55:03.982Z,7.40
2023-02-06T17:57:34.394Z,7.40
2023-02-06T18:00:04.930Z,7.40
2023-02-06T18:02:36.129Z,7.40
2023-02-06T18:05:10.244Z,7.40
2023-02-06T18:07:43.779Z,7.40
2023-02-06T18:10:14.486Z,7.30
2023-02-06T18:12:44.836Z,7.30
2023-02-06T18:15:15.719Z,7.30
2023-02-06T18:17:46.287Z,7.30
2023-02-06T18:20:17.337Z,7.20
2023-02-06T18:22:50.969Z,7.20
2023-02-06T18:25:21.676Z,7.20
2023-02-06T18:27:52.280Z,7.10
2023-02-06T18:30:22.700Z,7.10
2023-02-06T18:32:53.066Z,7.10
2023-02-06T18:35:23.575Z,7.00
2023-02-06T18:37:56.912Z,7.00
2023-02-06T18:40:27.222Z,7.00
2023-02-06T18:42:55.131Z,7.00
2023-02-06T18:45:31.374Z,6.90
2023-02-06T18:48:01.904Z,6.90
2023-02-06T18:50:33.250Z,6.90
2023-02-06T18:53:06.762Z,6.80
2023-02-06T18:55:37.839Z,6.80
2023-02-06T18:58:08.704Z,6.80
2023-02-06T19:00:42.509Z,6.70
2023-02-06T19:03:13.425Z,6.70
2023-02-06T19:05:44.121Z,6.70
2023-02-06T19:08:17.455Z,6.70
2023-02-06T19:10:47.954Z,6.70
2023-02-06T19:13:18.861Z,6.70
2023-02-06T19:15:49.433Z,6.60
2023-02-06T19:18:36.031Z,6.60
2023-02-06T19:21:11.131Z,6.60
2023-02-06T19:23:44.582Z,6.50
2023-02-06T19:26:18.874Z,6.50
2023-02-06T19:28:49.788Z,6.50
2023-02-06T19:31:24.149Z,6.50
2023-02-06T19:33:56.416Z,6.50
2023-02-06T19:36:28.294Z,6.40
2023-02-06T19:39:03.113Z,6.40
2023-02-06T19:41:34.909Z,6.40
2023-02-06T19:44:07.924Z,6.40
2023-02-06T19:46:38.972Z,6.40
2023-02-06T19:49:10.459Z,6.30
2023-02-06T19:51:45.041Z,6.30
2023-02-06T19:54:18.133Z,6.30
2023-02-06T19:56:50.382Z,6.20
2023-02-06T19:59:25.239Z,6.20
2023-02-06T20:01:58.277Z,6.40
2023-02-06T20:04:30.884Z,6.20
2023-02-06T20:07:02.024Z,6.20
2023-02-06T20:09:35.539Z,6.20
2023-02-06T20:12:06.837Z,6.20
2023-02-06T20:14:37.960Z,6.20
2023-02-06T20:17:08.547Z,6.10
2023-02-06T20:19:39.288Z,6.10
2023-02-06T20:22:09.959Z,6.10
2023-02-06T20:24:43.579Z,6.10
2023-02-06T20:27:15.377Z,6.10
2023-02-06T20:29:46.101Z,6.00
2023-02-06T20:32:18.562Z,6.00
2023-02-06T20:34:49.012Z,6.00
2023-02-06T20:37:21.648Z,6.00
2023-02-06T20:39:55.140Z,6.10
2023-02-06T20:42:27.418Z,6.00
2023-02-06T20:44:58.443Z,5.90
2023-02-06T20:47:28.877Z,5.90
2023-02-06T20:50:00.649Z,5.90
2023-02-06T20:52:31.301Z,5.90
2023-02-06T20:55:08.053Z,5.90
2023-02-06T20:57:39.165Z,5.80
2023-02-06T21:00:12.056Z,5.80
2023-02-06T21:02:42.440Z,5.80
2023-02-06T21:05:12.871Z,5.80
2023-02-06T21:07:44.022Z,5.80
2023-02-06T21:10:17.209Z,5.80
2023-02-06T21:12:47.863Z,5.80
2023-02-06T21:15:18.556Z,5.70
2023-02-06T21:17:48.984Z,5.70
2023-02-06T21:20:19.838Z,5.70
2023-02-06T21:22:52.952Z,5.70
2023-02-06T21:25:26.596Z,5.70
2023-02-06T21:27:57.281Z,5.60
2023-02-06T21:30:27.692Z,5.60
2023-02-06T21:32:58.316Z,5.70
2023-02-06T21:35:32.863Z,5.60
2023-02-06T21:38:04.080Z,5.60
2023-02-06T21:40:37.397Z,5.60
2023-02-06T21:43:07.753Z,5.60
2023-02-06T21:45:40.482Z,5.60
2023-02-06T21:48:11.287Z,5.50
2023-02-06T21:50:45.101Z,5.50
2023-02-06T21:53:15.774Z,5.50
2023-02-06T21:55:49.382Z,5.60
2023-02-06T21:58:19.967Z,5.50
2023-02-06T22:00:50.928Z,5.50
2023-02-06T22:03:23.086Z,5.50
2023-02-06T22:05:53.697Z,5.50
2023-02-06T22:08:24.195Z,5.60
2023-02-06T22:10:57.956Z,5.60
2023-02-06T22:13:28.728Z,5.60
2023-02-06T22:15:59.416Z,5.60
2023-02-06T22:18:30.201Z,5.60
2023-02-06T22:21:07.020Z,5.60
2023-02-06T22:23:37.854Z,5.50
2023-02-06T22:26:11.974Z,5.60
2023-02-06T22:28:42.728Z,5.50
2023-02-06T22:31:16.466Z,5.60
2023-02-06T22:33:47.839Z,5.40
2023-02-06T22:36:20.372Z,5.40
2023-02-06T22:38:55.655Z,5.40
2023-02-06T22:41:29.161Z,5.40
2023-02-06T22:43:59.934Z,5.30
2023-02-06T22:46:32.459Z,5.40
2023-02-06T22:49:03.044Z,5.30
2023-02-06T22:51:33.632Z,5.40
2023-02-06T22:54:04.282Z,5.40
2023-02-06T22:56:39.026Z,5.20
2023-02-06T22:59:11.966Z,5.20
2023-02-06T23:01:44.258Z,5.30
2023-02-06T23:04:16.994Z,5.20
2023-02-06T23:06:48.509Z,5.20
2023-02-06T23:09:21.345Z,5.20
2023-02-06T23:11:55.576Z,5.10
2023-02-06T23:14:26.009Z,5.20
2023-02-06T23:16:56.528Z,5.10
2023-02-06T23:19:27.940Z,5.10
2023-02-06T23:21:59.073Z,5.10
2023-02-06T23:24:29.992Z,5.10
2023-02-06T23:27:03.508Z,5.00
2023-02-06T23:29:34.166Z,5.10
2023-02-06T23:32:04.918Z,5.00
2023-02-06T23:34:35.435Z,5.00
2023-02-06T23:37:05.751Z,5.00
2023-02-06T23:39:36.098Z,5.00
2023-02-06T23:42:09.560Z,5.00
2023-02-06T23:44:40.621Z,5.10
2023-02-06T23:47:11.153Z,4.90
2023-02-06T23:49:41.778Z,5.00
2023-02-06T23:52:13.050Z,4.90
2023-02-06T23:54:44.085Z,4.90
2023-02-06T23:57:17.293Z,4.90
2023-02-06T23:59:47.738Z,4.90
